Guangzhou, China
Current Conditions -  °F | °C
As of 2:30 PM on Monday 24 Nov 2014 (Local Time) from ZGGG Reporting Station
Scattered Clouds Scattered Clouds  
Wind Chill: 82°   Ceiling: Unl
Heat Index: 84°   Visibility: 5mi
Dew Point: 64°   Wind: 4mph
Humidity: 54%   Direction: 160°SSE
Pressure: 29.91"   Gusts: NA
Location:  23.12°N, 113.25°E
Report Text: ZGGG 240630Z 16002MPS 110V240 8000 SCT040 28/18 Q1013 NOSIG
Loading
Personal Weather Stations






























Interactive Weather Map New forecast layout! Learn more

10-Day Weather Forecast

Advertisements
Track Severe Weather on mobile